Svitzer Stanlow — MLNF7 — position and weather

sailwx.info

Track history (hours):
 
Tides and Currents Weather Stations Pressure Air Temp Water Temp Dewpoint Dewpoint Depression Visibility Wind Speed Wind Dir Waves Ship Positions

Svitzer Stanlow

Last reported at 2017-Feb-25 11:31 UTC. Time now 2017-Feb-25 11:49 UTC.
Position N 53°25' W 003°00'.

Length 39 m.

Type: Tug. MMSI: 235010620.

Date/timePositionNaut miles runAvg speedWind from/ knotsBaromVisibWave heightAir tempDewpointWater temp
2017-Feb-25 11:31N 53°25' W 003°00'0 0.0
2017-Feb-25 10:25N 53°25' W 003°00'0 0.0
2017-Feb-25 09:31N 53°25' W 003°00'0 0.0
2017-Feb-25 08:31N 53°25' W 003°00'0 0.0
2017-Feb-25 07:31N 53°25' W 003°00'0 0.0
2017-Feb-25 06:31N 53°25' W 003°00'0 0.0
2017-Feb-25 05:31N 53°25' W 003°00'0 0.0
2017-Feb-25 04:31N 53°25' W 003°00'0 0.0
2017-Feb-25 03:31N 53°25' W 003°00'0 0.0
2017-Feb-25 02:31N 53°25' W 003°00'0 0.0
2017-Feb-25 01:31N 53°25' W 003°00'0 0.0
2017-Feb-25 00:28N 53°25' W 003°00'0 0.0
2017-Feb-24 23:28N 53°25' W 003°00'1 1.1
2017-Feb-24 22:33N 53°26' W 003°00'0 0.5
2017-Feb-24 21:31N 53°27' W 003°01'1 1.4
2017-Feb-24 20:33N 53°28' W 003°03'1 1.0
2017-Feb-24 19:31N 53°27' W 003°01'0 0.4
2017-Feb-24 18:28N 53°28' W 003°01'2 1.9
2017-Feb-24 17:31N 53°26' W 003°00'0 0.0
2017-Feb-24 16:22N 53°26' W 003°00'0 0.0
2017-Feb-24 15:28N 53°26' W 003°00'0 0.4
2017-Feb-24 14:32N 53°25' W 003°00'0 0.0
2017-Feb-24 13:32N 53°25' W 003°00'0 0.0
2017-Feb-24 12:29N 53°25' W 003°00'0 0.0
2017-Feb-24 11:32N 53°25' W 003°00'0 0.0
2017-Feb-24 10:26N 53°25' W 003°00'0 0.0
2017-Feb-24 09:31N 53°25' W 003°00'0 0.0
2017-Feb-24 08:31N 53°25' W 003°00'0 0.0
2017-Feb-24 07:28N 53°25' W 003°00'0 0.0
2017-Feb-24 06:31N 53°25' W 003°00'0 0.0
2017-Feb-24 05:31N 53°25' W 003°00'0 0.0
2017-Feb-24 04:31N 53°25' W 003°00'0 0.0
2017-Feb-24 03:31N 53°25' W 003°00'0 0.0
2017-Feb-24 02:31N 53°25' W 003°00'0 0.0
2017-Feb-24 01:28N 53°25' W 003°00'0 0.0
2017-Feb-24 00:31N 53°25' W 003°00'0 0.0
2017-Feb-23 23:31N 53°25' W 003°00'0 0.0
2017-Feb-23 22:31N 53°25' W 003°00'1 1.0
2017-Feb-23 21:31N 53°26' W 003°01'2 1.7
2017-Feb-23 20:33N 53°25' W 003°01'2 2.2
2017-Feb-23 19:33N 53°23' W 002°60'0 0.0
2017-Feb-23 18:30N 53°23' W 002°60'0 0.0
2017-Feb-23 17:32N 53°23' W 002°60'0 0.0
2017-Feb-23 16:32N 53°23' W 002°60'0 0.0
2017-Feb-23 15:29N 53°23' W 002°60'0 0.2
2017-Feb-23 14:33N 53°23' W 002°60'0 0.0
2017-Feb-23 13:24N 53°23' W 002°60'0 0.0
2017-Feb-23 12:33N 53°23' W 002°60'0 0.0
2017-Feb-23 11:33N 53°23' W 002°60'0 0.0
2017-Feb-23 10:27N 53°23' W 002°60'0 0.0
2017-Feb-23 09:33N 53°23' W 002°60'0 0.2
2017-Feb-23 08:32N 53°23' W 002°60'0 0.0
2017-Feb-23 07:26N 53°23' W 002°60'0 0.0
2017-Feb-23 06:20N 53°23' W 002°60'0 0.0
2017-Feb-23 05:32N 53°23' W 002°60'0 0.0
2017-Feb-23 04:32N 53°23' W 002°60'0 0.0
2017-Feb-23 03:32N 53°23' W 002°60'0 0.0
2017-Feb-23 02:31N 53°23' W 002°60'0 0.0
2017-Feb-23 01:31N 53°23' W 002°60'0 0.0
2017-Feb-23 00:31N 53°23' W 002°60'0 0.0
2017-Feb-22 23:31N 53°23' W 002°60'0 0.0
2017-Feb-22 22:31N 53°23' W 002°60'0 0.0
2017-Feb-22 21:31N 53°23' W 002°60'0 0.0
2017-Feb-22 20:31N 53°23' W 002°60'0 0.0
2017-Feb-22 19:31N 53°23' W 002°60'0 0.0
2017-Feb-22 18:22N 53°23' W 002°60'0 0.0
2017-Feb-22 17:31N 53°23' W 002°60'0 0.0
2017-Feb-22 16:31N 53°23' W 002°60'0 0.0
2017-Feb-22 15:28N 53°23' W 002°60'0 0.0
2017-Feb-22 14:28N 53°23' W 002°60'0 0.0
2017-Feb-22 13:28N 53°23' W 002°60'0 0.0
2017-Feb-22 12:31N 53°23' W 002°60'0 0.0
2017-Feb-22 11:28N 53°23' W 002°60'0 0.0
2017-Feb-22 10:31N 53°23' W 002°60'0 0.0
2017-Feb-22 09:31N 53°23' W 002°60'0 0.2
2017-Feb-22 08:33N 53°23' W 002°60'3 2.9
2017-Feb-22 07:33N 53°26' W 003°01'8 8.5
2017-Feb-22 06:34N 53°32' W 003°11'1 0.5
2017-Feb-22 05:33N 53°31' W 003°12'9 8.5
2017-Feb-22 04:33N 53°26' W 003°01'1 0.9
2017-Feb-22 03:33N 53°25' W 003°00'0 0.1
2017-Feb-22 02:25N 53°25' W 003°00'0 0.0
2017-Feb-22 01:25N 53°25' W 003°00'0 0.0
2017-Feb-22 00:31N 53°25' W 003°00'0 0.0
2017-Feb-21 23:28N 53°25' W 003°00'0 0.0
2017-Feb-21 22:31N 53°25' W 003°00'0 0.0
2017-Feb-21 21:28N 53°25' W 003°00'0 0.0
2017-Feb-21 20:25N 53°25' W 003°00'0 0.0
2017-Feb-21 19:22N 53°25' W 003°00'0 0.0
2017-Feb-21 18:31N 53°25' W 003°00'0 0.0
2017-Feb-21 17:31N 53°25' W 003°00'0 0.0
2017-Feb-21 16:28N 53°25' W 003°00'0 0.0
2017-Feb-21 15:28N 53°25' W 003°00'0 0.0
2017-Feb-21 14:31N 53°25' W 003°00'0 0.0
2017-Feb-21 13:31N 53°25' W 003°00'0 0.0
2017-Feb-21 12:31N 53°25' W 003°00'0 0.0
2017-Feb-21 11:28N 53°25' W 003°00'0 0.0
2017-Feb-21 10:28N 53°25' W 003°00'0 0.0
2017-Feb-21 09:28N 53°25' W 003°00'0 0.0
2017-Feb-21 08:31N 53°25' W 003°00'0 0.0
2017-Feb-21 07:31N 53°25' W 003°00'0 0.0
2017-Feb-21 06:28N 53°25' W 003°00'0 0.0
2017-Feb-21 05:28N 53°25' W 003°00'0 0.0
2017-Feb-21 04:31N 53°25' W 003°00'0 0.0
2017-Feb-21 03:22N 53°25' W 003°00'0 0.0
2017-Feb-21 02:31N 53°25' W 003°00'0 0.0
2017-Feb-21 01:31N 53°25' W 003°00'0 0.0
2017-Feb-21 00:28N 53°25' W 003°00'0 0.0
2017-Feb-20 23:31N 53°25' W 003°00'0 0.0
2017-Feb-20 22:31N 53°25' W 003°00'0 0.0
2017-Feb-20 21:28N 53°25' W 003°00'0 0.0
2017-Feb-20 20:31N 53°25' W 003°00'0 0.0
2017-Feb-20 19:28N 53°25' W 003°00'0 0.2
2017-Feb-20 18:33N 53°26' W 003°00'2 1.5
2017-Feb-20 17:31N 53°27' W 003°01'4 4.4
2017-Feb-20 16:31N 53°23' W 002°60'0 0.2
2017-Feb-20 15:31N 53°23' W 003°00'0 0.0
2017-Feb-20 14:28N 53°23' W 003°00'0 0.0
2017-Feb-20 13:31N 53°23' W 003°00'0 0.0
2017-Feb-20 12:31N 53°23' W 003°00'0 0.0
2017-Feb-20 11:31N 53°23' W 003°00'0 0.0
2017-Feb-20 10:28N 53°23' W 003°00'0 0.0
2017-Feb-20 09:31N 53°23' W 003°00'0 0.0
2017-Feb-20 08:31N 53°23' W 003°00'0 0.0
2017-Feb-20 07:16N 53°23' W 003°00'0 0.0
2017-Feb-20 06:28N 53°23' W 003°00'0 0.0
2017-Feb-20 05:31N 53°23' W 003°00'0 0.0
2017-Feb-20 04:28N 53°23' W 003°00'0 0.0
2017-Feb-20 03:30N 53°23' W 003°00'0 0.0
2017-Feb-20 02:33N 53°23' W 003°00'0 0.0
2017-Feb-20 01:27N 53°23' W 003°00'0 0.0
2017-Feb-20 00:33N 53°23' W 003°00'0 0.0
2017-Feb-19 23:33N 53°23' W 003°00'0 0.0
2017-Feb-19 22:33N 53°23' W 003°00'0 0.0
2017-Feb-19 21:32N 53°23' W 003°00'0 0.0
2017-Feb-19 20:32N 53°23' W 003°00'0 0.0
2017-Feb-19 19:32N 53°23' W 003°00'0 0.0
2017-Feb-19 18:32N 53°23' W 003°00'0 0.0
2017-Feb-19 17:26N 53°23' W 003°00'0 0.0
2017-Feb-19 16:26N 53°23' W 003°00'0 0.0
2017-Feb-19 15:32N 53°23' W 003°00'3 3.5
2017-Feb-19 14:33N 53°26' W 003°01'0 0.4
2017-Feb-19 13:32N 53°26' W 003°01'2 2.1
2017-Feb-19 12:33N 53°28' W 003°03'5 5.0
2017-Feb-19 11:30N 53°23' W 003°00'0 0.0
2017-Feb-19 10:30N 53°23' W 003°00'0 0.0
2017-Feb-19 09:24N 53°23' W 003°00'0 0.0
2017-Feb-19 08:33N 53°23' W 003°00'0 0.0
2017-Feb-19 07:33N 53°23' W 003°00'0 0.0
2017-Feb-19 06:33N 53°23' W 003°00'0 0.0
2017-Feb-19 05:33N 53°23' W 003°00'0 0.0
2017-Feb-19 04:33N 53°23' W 003°00'0 0.0
2017-Feb-19 03:30N 53°23' W 003°00'0 0.0
2017-Feb-19 02:33N 53°23' W 002°60'0 0.0
2017-Feb-19 01:32N 53°23' W 002°60'0 0.0
2017-Feb-19 00:29N 53°23' W 002°60'0 0.0
2017-Feb-18 23:26N 53°23' W 002°60'0 0.0
2017-Feb-18 22:32N 53°23' W 002°60'0 0.0
2017-Feb-18 21:32N 53°23' W 002°60'0 0.0
2017-Feb-18 20:32N 53°23' W 002°60'0 0.0
2017-Feb-18 19:32N 53°23' W 002°60'0 0.0
2017-Feb-18 18:32N 53°23' W 002°60'0 0.0
2017-Feb-18 17:23N 53°23' W 002°60'0 0.0
2017-Feb-18 16:32N 53°23' W 002°60'0 0.0
2017-Feb-18 15:32N 53°23' W 002°60'4 4.3
2017-Feb-18 14:33N 53°27' W 003°01'0 0.3
2017-Feb-18 13:28N 53°27' W 003°02'2 2.4
2017-Feb-18 12:33N 53°25' W 003°01'2 1.9
2017-Feb-18 11:29N 53°23' W 002°60'0 0.0
2017-Feb-18 10:26N 53°23' W 002°60'0 0.0
2017-Feb-18 09:29N 53°23' W 002°60'0 0.0
2017-Feb-18 08:32N 53°23' W 002°60'0 0.0
2017-Feb-18 07:29N 53°23' W 002°60'0 0.0
2017-Feb-18 06:32N 53°23' W 002°60'0 0.0
2017-Feb-18 05:32N 53°23' W 002°60'0 0.0
2017-Feb-18 04:32N 53°23' W 002°60'0 0.0
2017-Feb-18 03:32N 53°23' W 002°60'0 0.0
2017-Feb-18 02:29N 53°23' W 002°60'0 0.0
2017-Feb-18 01:32N 53°23' W 002°60'0 0.0
2017-Feb-18 00:26N 53°23' W 002°60'0 0.0
2017-Feb-17 23:29N 53°23' W 002°60'0 0.0
2017-Feb-17 22:29N 53°23' W 002°60'0 0.0
2017-Feb-17 21:32N 53°23' W 002°60'0 0.0
2017-Feb-17 20:32N 53°23' W 002°60'0 0.0
2017-Feb-17 19:29N 53°23' W 002°60'0 0.0
2017-Feb-17 18:23N 53°23' W 002°60'0 0.0
2017-Feb-17 17:29N 53°23' W 002°60'0 0.0
2017-Feb-17 16:32N 53°23' W 002°60'0 0.3
2017-Feb-17 15:32N 53°23' W 003°00'4 4.5
2017-Feb-17 14:33N 53°27' W 003°02'8 8.4
2017-Feb-17 13:33N 53°31' W 003°15'0 0.3
2017-Feb-17 12:33N 53°31' W 003°14'8 8.2
2017-Feb-17 11:33N 53°27' W 003°02'5 4.7
2017-Feb-17 10:33N 53°23' W 002°60'0 0.0
2017-Feb-17 09:21N 53°23' W 002°60'0 0.0
2017-Feb-17 08:33N 53°23' W 002°60'0 0.0
2017-Feb-17 07:33N 53°23' W 002°60'0 0.0
2017-Feb-17 06:33N 53°23' W 002°60'0 0.0
2017-Feb-17 05:33N 53°23' W 002°60'0 0.0
2017-Feb-17 04:33N 53°23' W 002°60'0 0.0
2017-Feb-17 03:33N 53°23' W 002°60'0 0.0
2017-Feb-17 02:30N 53°23' W 002°60'0 0.0
2017-Feb-17 01:33N 53°23' W 002°60'0 0.0
2017-Feb-17 00:33N 53°23' W 002°60'0 0.0
2017-Feb-16 23:33N 53°23' W 002°60'0 0.0
2017-Feb-16 22:30N 53°23' W 002°60'0 0.0
2017-Feb-16 21:33N 53°23' W 002°60'0 0.0
2017-Feb-16 20:30N 53°23' W 002°60'0 0.0
2017-Feb-16 19:24N 53°23' W 002°60'0 0.0
2017-Feb-16 18:27N 53°23' W 002°60'0 0.0
2017-Feb-16 17:30N 53°23' W 002°60'0 0.0
2017-Feb-16 16:30N 53°23' W 002°60'0 0.0
2017-Feb-16 15:30N 53°23' W 002°60'0 0.0
2017-Feb-16 14:33N 53°23' W 002°60'0 0.0
2017-Feb-16 13:29N 53°23' W 002°60'2 1.6
2017-Feb-16 12:32N 53°24' W 002°60'0 0.0
2017-Feb-16 11:32N 53°24' W 002°60'0 0.0
2017-Feb-16 10:26N 53°24' W 002°60'0 0.0
2017-Feb-16 09:32N 53°24' W 002°60'0 0.0
2017-Feb-16 08:32N 53°24' W 002°60'0 0.0
2017-Feb-16 07:32N 53°24' W 002°60'0 0.0
2017-Feb-16 06:29N 53°24' W 002°60'0 0.0
2017-Feb-16 05:32N 53°24' W 002°60'1 1.5
2017-Feb-16 04:33N 53°23' W 003°00'0 0.2
2017-Feb-16 03:33N 53°23' W 003°00'2 2.5
2017-Feb-16 02:33N 53°25' W 003°01'8 8.3
2017-Feb-16 01:33N 53°32' W 003°10'5 4.9
2017-Feb-16 00:29N 53°32' W 003°19'7 7.4
2017-Feb-15 23:33N 53°32' W 003°07'8 8.1
2017-Feb-15 22:31N 53°24' W 002°60'0 0.0
2017-Feb-15 21:31N 53°24' W 002°60'0 0.0
2017-Feb-15 20:31N 53°24' W 002°60'0 0.0
2017-Feb-15 19:31N 53°24' W 002°60'0 0.0
2017-Feb-15 18:07N 53°24' W 002°60'0 0.0
2017-Feb-15 17:31N 53°24' W 002°60'0 0.0
2017-Feb-15 16:30N 53°24' W 002°60'0 0.0
2017-Feb-15 15:33N 53°24' W 002°60'0 0.0
2017-Feb-15 14:30N 53°24' W 002°60'0 0.0
2017-Feb-15 13:33N 53°24' W 002°60'2 1.5
2017-Feb-15 12:31N 53°23' W 002°60'0 0.1
2017-Feb-15 11:33N 53°23' W 002°60'  
Track history (hours):
 
Tides and Currents Weather Stations Pressure Air Temp Water Temp Dewpoint Dewpoint Depression Visibility Wind Speed Wind Dir Waves Ship Positions

Svitzer Stanlow

Last reported at 2017-Feb-25 11:31 UTC. Time now 2017-Feb-25 11:49 UTC.
Position N 53°25' W 003°00'.

Length 39 m.

Type: Tug. MMSI: 235010620.

Date/timePositionNaut miles runAvg speedWind from/ knotsBaromVisibWave heightAir tempDewpointWater temp
2017-Feb-25 11:31N 53°25' W 003°00'0 0.0
2017-Feb-25 10:25N 53°25' W 003°00'0 0.0
2017-Feb-25 09:31N 53°25' W 003°00'0 0.0
2017-Feb-25 08:31N 53°25' W 003°00'0 0.0
2017-Feb-25 07:31N 53°25' W 003°00'0 0.0
2017-Feb-25 06:31N 53°25' W 003°00'0 0.0
2017-Feb-25 05:31N 53°25' W 003°00'0 0.0
2017-Feb-25 04:31N 53°25' W 003°00'0 0.0
2017-Feb-25 03:31N 53°25' W 003°00'0 0.0
2017-Feb-25 02:31N 53°25' W 003°00'0 0.0
2017-Feb-25 01:31N 53°25' W 003°00'0 0.0
2017-Feb-25 00:28N 53°25' W 003°00'0 0.0
2017-Feb-24 23:28N 53°25' W 003°00'1 1.1
2017-Feb-24 22:33N 53°26' W 003°00'0 0.5
2017-Feb-24 21:31N 53°27' W 003°01'1 1.4
2017-Feb-24 20:33N 53°28' W 003°03'1 1.0
2017-Feb-24 19:31N 53°27' W 003°01'0 0.4
2017-Feb-24 18:28N 53°28' W 003°01'2 1.9
2017-Feb-24 17:31N 53°26' W 003°00'0 0.0
2017-Feb-24 16:22N 53°26' W 003°00'0 0.0
2017-Feb-24 15:28N 53°26' W 003°00'0 0.4
2017-Feb-24 14:32N 53°25' W 003°00'0 0.0
2017-Feb-24 13:32N 53°25' W 003°00'0 0.0
2017-Feb-24 12:29N 53°25' W 003°00'0 0.0
2017-Feb-24 11:32N 53°25' W 003°00'0 0.0
2017-Feb-24 10:26N 53°25' W 003°00'0 0.0
2017-Feb-24 09:31N 53°25' W 003°00'0 0.0
2017-Feb-24 08:31N 53°25' W 003°00'0 0.0
2017-Feb-24 07:28N 53°25' W 003°00'0 0.0
2017-Feb-24 06:31N 53°25' W 003°00'0 0.0
2017-Feb-24 05:31N 53°25' W 003°00'0 0.0
2017-Feb-24 04:31N 53°25' W 003°00'0 0.0
2017-Feb-24 03:31N 53°25' W 003°00'0 0.0
2017-Feb-24 02:31N 53°25' W 003°00'0 0.0
2017-Feb-24 01:28N 53°25' W 003°00'0 0.0
2017-Feb-24 00:31N 53°25' W 003°00'0 0.0
2017-Feb-23 23:31N 53°25' W 003°00'0 0.0
2017-Feb-23 22:31N 53°25' W 003°00'1 1.0
2017-Feb-23 21:31N 53°26' W 003°01'2 1.7
2017-Feb-23 20:33N 53°25' W 003°01'2 2.2
2017-Feb-23 19:33N 53°23' W 002°60'0 0.0
2017-Feb-23 18:30N 53°23' W 002°60'0 0.0
2017-Feb-23 17:32N 53°23' W 002°60'0 0.0
2017-Feb-23 16:32N 53°23' W 002°60'0 0.0
2017-Feb-23 15:29N 53°23' W 002°60'0 0.2
2017-Feb-23 14:33N 53°23' W 002°60'0 0.0
2017-Feb-23 13:24N 53°23' W 002°60'0 0.0
2017-Feb-23 12:33N 53°23' W 002°60'0 0.0
2017-Feb-23 11:33N 53°23' W 002°60'0 0.0
2017-Feb-23 10:27N 53°23' W 002°60'0 0.0
2017-Feb-23 09:33N 53°23' W 002°60'0 0.2
2017-Feb-23 08:32N 53°23' W 002°60'0 0.0
2017-Feb-23 07:26N 53°23' W 002°60'0 0.0
2017-Feb-23 06:20N 53°23' W 002°60'0 0.0
2017-Feb-23 05:32N 53°23' W 002°60'0 0.0
2017-Feb-23 04:32N 53°23' W 002°60'0 0.0
2017-Feb-23 03:32N 53°23' W 002°60'0 0.0
2017-Feb-23 02:31N 53°23' W 002°60'0 0.0
2017-Feb-23 01:31N 53°23' W 002°60'0 0.0
2017-Feb-23 00:31N 53°23' W 002°60'0 0.0
2017-Feb-22 23:31N 53°23' W 002°60'0 0.0
2017-Feb-22 22:31N 53°23' W 002°60'0 0.0
2017-Feb-22 21:31N 53°23' W 002°60'0 0.0
2017-Feb-22 20:31N 53°23' W 002°60'0 0.0
2017-Feb-22 19:31N 53°23' W 002°60'0 0.0
2017-Feb-22 18:22N 53°23' W 002°60'0 0.0
2017-Feb-22 17:31N 53°23' W 002°60'0 0.0
2017-Feb-22 16:31N 53°23' W 002°60'0 0.0
2017-Feb-22 15:28N 53°23' W 002°60'0 0.0
2017-Feb-22 14:28N 53°23' W 002°60'0 0.0
2017-Feb-22 13:28N 53°23' W 002°60'0 0.0
2017-Feb-22 12:31N 53°23' W 002°60'0 0.0
2017-Feb-22 11:28N 53°23' W 002°60'0 0.0
2017-Feb-22 10:31N 53°23' W 002°60'0 0.0
2017-Feb-22 09:31N 53°23' W 002°60'0 0.2
2017-Feb-22 08:33N 53°23' W 002°60'3 2.9
2017-Feb-22 07:33N 53°26' W 003°01'8 8.5
2017-Feb-22 06:34N 53°32' W 003°11'1 0.5
2017-Feb-22 05:33N 53°31' W 003°12'9 8.5
2017-Feb-22 04:33N 53°26' W 003°01'1 0.9
2017-Feb-22 03:33N 53°25' W 003°00'0 0.1
2017-Feb-22 02:25N 53°25' W 003°00'0 0.0
2017-Feb-22 01:25N 53°25' W 003°00'0 0.0
2017-Feb-22 00:31N 53°25' W 003°00'0 0.0
2017-Feb-21 23:28N 53°25' W 003°00'0 0.0
2017-Feb-21 22:31N 53°25' W 003°00'0 0.0
2017-Feb-21 21:28N 53°25' W 003°00'0 0.0
2017-Feb-21 20:25N 53°25' W 003°00'0 0.0
2017-Feb-21 19:22N 53°25' W 003°00'0 0.0
2017-Feb-21 18:31N 53°25' W 003°00'0 0.0
2017-Feb-21 17:31N 53°25' W 003°00'0 0.0
2017-Feb-21 16:28N 53°25' W 003°00'0 0.0
2017-Feb-21 15:28N 53°25' W 003°00'0 0.0
2017-Feb-21 14:31N 53°25' W 003°00'0 0.0
2017-Feb-21 13:31N 53°25' W 003°00'0 0.0
2017-Feb-21 12:31N 53°25' W 003°00'0 0.0
2017-Feb-21 11:28N 53°25' W 003°00'0 0.0
2017-Feb-21 10:28N 53°25' W 003°00'0 0.0
2017-Feb-21 09:28N 53°25' W 003°00'0 0.0
2017-Feb-21 08:31N 53°25' W 003°00'0 0.0
2017-Feb-21 07:31N 53°25' W 003°00'0 0.0
2017-Feb-21 06:28N 53°25' W 003°00'0 0.0
2017-Feb-21 05:28N 53°25' W 003°00'0 0.0
2017-Feb-21 04:31N 53°25' W 003°00'0 0.0
2017-Feb-21 03:22N 53°25' W 003°00'0 0.0
2017-Feb-21 02:31N 53°25' W 003°00'0 0.0
2017-Feb-21 01:31N 53°25' W 003°00'0 0.0
2017-Feb-21 00:28N 53°25' W 003°00'0 0.0
2017-Feb-20 23:31N 53°25' W 003°00'0 0.0
2017-Feb-20 22:31N 53°25' W 003°00'0 0.0
2017-Feb-20 21:28N 53°25' W 003°00'0 0.0
2017-Feb-20 20:31N 53°25' W 003°00'0 0.0
2017-Feb-20 19:28N 53°25' W 003°00'0 0.2
2017-Feb-20 18:33N 53°26' W 003°00'2 1.5
2017-Feb-20 17:31N 53°27' W 003°01'4 4.4
2017-Feb-20 16:31N 53°23' W 002°60'0 0.2
2017-Feb-20 15:31N 53°23' W 003°00'0 0.0
2017-Feb-20 14:28N 53°23' W 003°00'0 0.0
2017-Feb-20 13:31N 53°23' W 003°00'0 0.0
2017-Feb-20 12:31N 53°23' W 003°00'0 0.0
2017-Feb-20 11:31N 53°23' W 003°00'0 0.0
2017-Feb-20 10:28N 53°23' W 003°00'0 0.0
2017-Feb-20 09:31N 53°23' W 003°00'0 0.0
2017-Feb-20 08:31N 53°23' W 003°00'0 0.0
2017-Feb-20 07:16N 53°23' W 003°00'0 0.0
2017-Feb-20 06:28N 53°23' W 003°00'0 0.0
2017-Feb-20 05:31N 53°23' W 003°00'0 0.0
2017-Feb-20 04:28N 53°23' W 003°00'0 0.0
2017-Feb-20 03:30N 53°23' W 003°00'0 0.0
2017-Feb-20 02:33N 53°23' W 003°00'0 0.0
2017-Feb-20 01:27N 53°23' W 003°00'0 0.0
2017-Feb-20 00:33N 53°23' W 003°00'0 0.0
2017-Feb-19 23:33N 53°23' W 003°00'0 0.0
2017-Feb-19 22:33N 53°23' W 003°00'0 0.0
2017-Feb-19 21:32N 53°23' W 003°00'0 0.0
2017-Feb-19 20:32N 53°23' W 003°00'0 0.0
2017-Feb-19 19:32N 53°23' W 003°00'0 0.0
2017-Feb-19 18:32N 53°23' W 003°00'0 0.0
2017-Feb-19 17:26N 53°23' W 003°00'0 0.0
2017-Feb-19 16:26N 53°23' W 003°00'0 0.0
2017-Feb-19 15:32N 53°23' W 003°00'3 3.5
2017-Feb-19 14:33N 53°26' W 003°01'0 0.4
2017-Feb-19 13:32N 53°26' W 003°01'2 2.1
2017-Feb-19 12:33N 53°28' W 003°03'5 5.0
2017-Feb-19 11:30N 53°23' W 003°00'0 0.0
2017-Feb-19 10:30N 53°23' W 003°00'0 0.0
2017-Feb-19 09:24N 53°23' W 003°00'0 0.0
2017-Feb-19 08:33N 53°23' W 003°00'0 0.0
2017-Feb-19 07:33N 53°23' W 003°00'0 0.0
2017-Feb-19 06:33N 53°23' W 003°00'0 0.0
2017-Feb-19 05:33N 53°23' W 003°00'0 0.0
2017-Feb-19 04:33N 53°23' W 003°00'0 0.0
2017-Feb-19 03:30N 53°23' W 003°00'0 0.0
2017-Feb-19 02:33N 53°23' W 002°60'0 0.0
2017-Feb-19 01:32N 53°23' W 002°60'0 0.0
2017-Feb-19 00:29N 53°23' W 002°60'0 0.0
2017-Feb-18 23:26N 53°23' W 002°60'0 0.0
2017-Feb-18 22:32N 53°23' W 002°60'0 0.0
2017-Feb-18 21:32N 53°23' W 002°60'0 0.0
2017-Feb-18 20:32N 53°23' W 002°60'0 0.0
2017-Feb-18 19:32N 53°23' W 002°60'0 0.0
2017-Feb-18 18:32N 53°23' W 002°60'0 0.0
2017-Feb-18 17:23N 53°23' W 002°60'0 0.0
2017-Feb-18 16:32N 53°23' W 002°60'0 0.0
2017-Feb-18 15:32N 53°23' W 002°60'4 4.3
2017-Feb-18 14:33N 53°27' W 003°01'0 0.3
2017-Feb-18 13:28N 53°27' W 003°02'2 2.4
2017-Feb-18 12:33N 53°25' W 003°01'2 1.9
2017-Feb-18 11:29N 53°23' W 002°60'0 0.0
2017-Feb-18 10:26N 53°23' W 002°60'0 0.0
2017-Feb-18 09:29N 53°23' W 002°60'0 0.0
2017-Feb-18 08:32N 53°23' W 002°60'0 0.0
2017-Feb-18 07:29N 53°23' W 002°60'0 0.0
2017-Feb-18 06:32N 53°23' W 002°60'0 0.0
2017-Feb-18 05:32N 53°23' W 002°60'0 0.0
2017-Feb-18 04:32N 53°23' W 002°60'0 0.0
2017-Feb-18 03:32N 53°23' W 002°60'0 0.0
2017-Feb-18 02:29N 53°23' W 002°60'0 0.0
2017-Feb-18 01:32N 53°23' W 002°60'0 0.0
2017-Feb-18 00:26N 53°23' W 002°60'0 0.0
2017-Feb-17 23:29N 53°23' W 002°60'0 0.0
2017-Feb-17 22:29N 53°23' W 002°60'0 0.0
2017-Feb-17 21:32N 53°23' W 002°60'0 0.0
2017-Feb-17 20:32N 53°23' W 002°60'0 0.0
2017-Feb-17 19:29N 53°23' W 002°60'0 0.0
2017-Feb-17 18:23N 53°23' W 002°60'0 0.0
2017-Feb-17 17:29N 53°23' W 002°60'0 0.0
2017-Feb-17 16:32N 53°23' W 002°60'0 0.3
2017-Feb-17 15:32N 53°23' W 003°00'4 4.5
2017-Feb-17 14:33N 53°27' W 003°02'8 8.4
2017-Feb-17 13:33N 53°31' W 003°15'0 0.3
2017-Feb-17 12:33N 53°31' W 003°14'8 8.2
2017-Feb-17 11:33N 53°27' W 003°02'5 4.7
2017-Feb-17 10:33N 53°23' W 002°60'0 0.0
2017-Feb-17 09:21N 53°23' W 002°60'0 0.0
2017-Feb-17 08:33N 53°23' W 002°60'0 0.0
2017-Feb-17 07:33N 53°23' W 002°60'0 0.0
2017-Feb-17 06:33N 53°23' W 002°60'0 0.0
2017-Feb-17 05:33N 53°23' W 002°60'0 0.0
2017-Feb-17 04:33N 53°23' W 002°60'0 0.0
2017-Feb-17 03:33N 53°23' W 002°60'0 0.0
2017-Feb-17 02:30N 53°23' W 002°60'0 0.0
2017-Feb-17 01:33N 53°23' W 002°60'0 0.0
2017-Feb-17 00:33N 53°23' W 002°60'0 0.0
2017-Feb-16 23:33N 53°23' W 002°60'0 0.0
2017-Feb-16 22:30N 53°23' W 002°60'0 0.0
2017-Feb-16 21:33N 53°23' W 002°60'0 0.0
2017-Feb-16 20:30N 53°23' W 002°60'0 0.0
2017-Feb-16 19:24N 53°23' W 002°60'0 0.0
2017-Feb-16 18:27N 53°23' W 002°60'0 0.0
2017-Feb-16 17:30N 53°23' W 002°60'0 0.0
2017-Feb-16 16:30N 53°23' W 002°60'0 0.0
2017-Feb-16 15:30N 53°23' W 002°60'0 0.0
2017-Feb-16 14:33N 53°23' W 002°60'0 0.0
2017-Feb-16 13:29N 53°23' W 002°60'2 1.6
2017-Feb-16 12:32N 53°24' W 002°60'0 0.0
2017-Feb-16 11:32N 53°24' W 002°60'0 0.0
2017-Feb-16 10:26N 53°24' W 002°60'0 0.0
2017-Feb-16 09:32N 53°24' W 002°60'0 0.0
2017-Feb-16 08:32N 53°24' W 002°60'0 0.0
2017-Feb-16 07:32N 53°24' W 002°60'0 0.0
2017-Feb-16 06:29N 53°24' W 002°60'0 0.0
2017-Feb-16 05:32N 53°24' W 002°60'1 1.5
2017-Feb-16 04:33N 53°23' W 003°00'0 0.2
2017-Feb-16 03:33N 53°23' W 003°00'2 2.5
2017-Feb-16 02:33N 53°25' W 003°01'8 8.3
2017-Feb-16 01:33N 53°32' W 003°10'5 4.9
2017-Feb-16 00:29N 53°32' W 003°19'7 7.4
2017-Feb-15 23:33N 53°32' W 003°07'8 8.1
2017-Feb-15 22:31N 53°24' W 002°60'0 0.0
2017-Feb-15 21:31N 53°24' W 002°60'0 0.0
2017-Feb-15 20:31N 53°24' W 002°60'0 0.0
2017-Feb-15 19:31N 53°24' W 002°60'0 0.0
2017-Feb-15 18:07N 53°24' W 002°60'0 0.0
2017-Feb-15 17:31N 53°24' W 002°60'0 0.0
2017-Feb-15 16:30N 53°24' W 002°60'0 0.0
2017-Feb-15 15:33N 53°24' W 002°60'0 0.0
2017-Feb-15 14:30N 53°24' W 002°60'0 0.0
2017-Feb-15 13:33N 53°24' W 002°60'2 1.5
2017-Feb-15 12:31N 53°23' W 002°60'0 0.1
2017-Feb-15 11:33N 53°23' W 002°60'  

Dump ship's entire track history